Time;durP1;ratioP1;P1;durP2;ratioP2;P2;SDS_P1;SDS_P2;PMS_P1;PMS_P2;Temp;Humidity;BMP_temperature;BMP_pressure;BME280_temperature;BME280_humidity;BME280_pressure;Samples;Min_cycle;Max_cycle;Signal;HPM_P1;HPM_P2
2021/01/01 00:01:57;;;;;;;22.17;16.07;;;3.90;99.90;;;;;;6068116;23;20419;-77
2021/01/01 00:04:24;;;;;;;21.07;15.67;;;3.90;99.90;;;;;;6066299;23;20419;-79
2021/01/01 00:06:51;;;;;;;21.10;14.33;;;3.80;99.90;;;;;;6090454;23;20818;-77
2021/01/01 00:09:18;;;;;;;19.13;14.33;;;3.80;99.90;;;;;;6065833;23;20431;-78
2021/01/01 00:11:48;;;;;;;20.40;15.00;;;3.70;99.90;;;;;;6065941;23;20421;-77
2021/01/01 00:14:14;;;;;;;24.17;17.90;;;3.60;99.90;;;;;;6066157;23;20505;-77
2021/01/01 00:16:41;;;;;;;26.37;22.80;;;3.50;99.90;;;;;;6065877;23;20839;-77
2021/01/01 00:19:07;;;;;;;23.67;17.60;;;3.50;99.90;;;;;;6067561;23;20827;-77
2021/01/01 00:21:34;;;;;;;22.87;17.17;;;3.40;99.90;;;;;;6068121;23;20399;-77
2021/01/01 00:24:01;;;;;;;19.83;15.70;;;3.40;99.90;;;;;;6066322;23;20414;-77
2021/01/01 00:26:27;;;;;;;19.57;17.50;;;3.30;99.90;;;;;;6066371;23;20422;-77
2021/01/01 00:28:54;;;;;;;23.10;20.63;;;3.30;99.90;;;;;;6067444;23;20420;-78
2021/01/01 00:31:22;;;;;;;21.87;18.93;;;3.30;99.90;;;;;;6066244;23;20428;-78
2021/01/01 00:33:48;;;;;;;22.33;17.03;;;3.40;99.90;;;;;;6067808;23;20393;-77
2021/01/01 00:36:15;;;;;;;18.90;15.27;;;3.40;99.90;;;;;;6067903;23;20441;-78
2021/01/01 00:38:46;;;;;;;17.17;14.70;;;3.40;99.90;;;;;;6067357;23;20393;-78
2021/01/01 00:41:13;;;;;;;22.77;16.03;;;3.40;99.90;;;;;;6067758;23;20937;-77
2021/01/01 00:43:39;;;;;;;19.07;12.33;;;3.40;99.90;;;;;;6066368;23;20432;-78
2021/01/01 00:46:06;;;;;;;20.10;14.50;;;3.40;99.90;;;;;;6067921;23;20395;-78
2021/01/01 00:48:32;;;;;;;17.57;13.40;;;3.40;99.90;;;;;;6066092;23;20452;-77
2021/01/01 00:50:59;;;;;;;19.73;15.67;;;3.40;99.90;;;;;;6067851;23;20396;-77
2021/01/01 00:53:25;;;;;;;20.60;16.10;;;3.40;99.90;;;;;;6067953;23;20392;-77
2021/01/01 00:55:52;;;;;;;24.37;17.80;;;3.40;99.90;;;;;;6066276;23;20455;-78
2021/01/01 00:58:18;;;;;;;23.50;17.43;;;3.40;99.90;;;;;;6067705;23;20433;-77
2021/01/01 01:00:44;;;;;;;22.87;18.13;;;3.40;99.90;;;;;;6067958;23;20424;-77
2021/01/01 01:03:11;;;;;;;24.43;16.57;;;3.40;99.90;;;;;;6065906;23;20924;-77
2021/01/01 01:05:37;;;;;;;21.20;16.43;;;3.50;99.90;;;;;;6066448;23;20458;-77
2021/01/01 01:08:03;;;;;;;26.23;22.93;;;3.50;99.90;;;;;;6066070;23;20448;-77
2021/01/01 01:10:30;;;;;;;24.63;18.70;;;3.50;99.90;;;;;;6067084;23;20415;-78
2021/01/01 01:12:57;;;;;;;24.17;19.50;;;3.50;99.90;;;;;;6067573;23;20418;-77
2021/01/01 01:15:23;;;;;;;23.27;18.33;;;3.50;99.90;;;;;;6065826;23;20427;-77
2021/01/01 01:17:49;;;;;;;24.17;16.67;;;3.50;99.90;;;;;;6067484;23;20431;-77
2021/01/01 01:20:16;;;;;;;19.93;15.77;;;3.40;99.90;;;;;;6067586;23;20463;-77
2021/01/01 01:22:42;;;;;;;21.07;16.00;;;3.40;99.90;;;;;;6068629;23;20407;-77
2021/01/01 01:25:09;;;;;;;21.90;16.63;;;3.40;99.90;;;;;;6091786;23;20418;-77
2021/01/01 01:27:35;;;;;;;22.63;17.83;;;3.30;99.90;;;;;;6067433;23;20751;-77
2021/01/01 01:30:04;;;;;;;22.50;15.73;;;3.20;99.90;;;;;;6068623;23;20416;-78
2021/01/01 01:32:30;;;;;;;28.30;20.07;;;3.20;99.90;;;;;;6091894;23;20421;-77
2021/01/01 01:34:57;;;;;;;26.67;21.77;;;3.10;99.90;;;;;;6067765;23;20416;-78
2021/01/01 01:37:23;;;;;;;25.50;18.77;;;3.10;99.90;;;;;;6068880;23;20436;-77
2021/01/01 01:39:49;;;;;;;21.40;15.40;;;3.00;99.90;;;;;;6068684;23;20437;-78
2021/01/01 01:42:15;;;;;;;20.40;14.30;;;3.00;99.90;;;;;;6068921;23;20449;-77
2021/01/01 01:44:42;;;;;;;21.67;15.87;;;2.90;99.90;;;;;;6069039;23;20391;-77
2021/01/01 01:47:17;;;;;;;27.87;24.87;;;2.80;99.90;;;;;;6067353;23;20411;-77
2021/01/01 01:49:44;;;;;;;31.70;22.60;;;2.80;99.90;;;;;;6068585;23;20496;-78
2021/01/01 01:52:10;;;;;;;33.00;21.47;;;2.80;99.90;;;;;;6067519;23;20455;-77
2021/01/01 01:54:39;;;;;;;35.87;24.00;;;2.80;99.90;;;;;;6069247;23;20419;-77
2021/01/01 01:57:07;;;;;;;34.33;22.93;;;2.80;99.90;;;;;;6091353;23;20467;-77
2021/01/01 01:59:34;;;;;;;34.83;23.43;;;2.70;99.90;;;;;;6067417;23;20829;-77
2021/01/01 02:02:00;;;;;;;33.37;22.30;;;2.70;99.90;;;;;;6067292;23;20422;-79
2021/01/01 02:04:27;;;;;;;32.63;25.00;;;2.70;99.90;;;;;;6069122;23;20451;-78
2021/01/01 02:06:54;;;;;;;32.07;25.30;;;2.70;99.90;;;;;;6067713;23;20443;-77
2021/01/01 02:09:20;;;;;;;31.60;22.53;;;2.60;99.90;;;;;;6067348;23;20430;-77
2021/01/01 02:11:49;;;;;;;34.47;24.77;;;2.60;99.90;;;;;;6068943;23;20402;-77
2021/01/01 02:14:15;;;;;;;33.23;22.50;;;2.60;99.90;;;;;;6067661;23;20509;-77
2021/01/01 02:16:42;;;;;;;27.73;21.60;;;2.60;99.90;;;;;;6068676;23;20435;-78
2021/01/01 02:19:09;;;;;;;31.03;21.80;;;2.70;99.90;;;;;;6066918;23;20752;-77
2021/01/01 02:21:40;;;;;;;33.23;24.13;;;2.70;99.90;;;;;;6068885;23;20872;-77
2021/01/01 02:24:08;;;;;;;34.07;24.67;;;2.70;99.90;;;;;;6067306;23;20406;-78
2021/01/01 02:26:35;;;;;;;31.03;22.50;;;2.70;99.90;;;;;;6068629;23;20395;-77
2021/01/01 02:29:01;;;;;;;32.53;22.77;;;2.70;99.90;;;;;;6068308;23;20414;-78
2021/01/01 02:31:27;;;;;;;34.53;23.33;;;2.80;99.90;;;;;;6068705;23;20873;-77
2021/01/01 02:33:54;;;;;;;30.37;21.27;;;2.80;99.90;;;;;;6068905;23;20483;-78
2021/01/01 02:36:20;;;;;;;29.20;20.17;;;2.80;99.90;;;;;;6067197;23;20935;-77
2021/01/01 02:38:46;;;;;;;29.27;20.40;;;2.90;99.90;;;;;;6090819;23;20437;-77
2021/01/01 02:41:14;;;;;;;25.60;19.67;;;2.90;99.90;;;;;;6068813;23;20899;-77
2021/01/01 02:43:40;;;;;;;27.27;18.27;;;3.00;99.90;;;;;;6067130;23;20902;-78
2021/01/01 02:46:06;;;;;;;21.53;16.43;;;3.10;99.90;;;;;;6067253;23;20424;-77
2021/01/01 02:48:32;;;;;;;24.67;19.83;;;3.10;99.90;;;;;;6068064;23;20399;-77
2021/01/01 02:50:59;;;;;;;24.90;18.53;;;3.10;99.90;;;;;;6067069;23;20764;-77
2021/01/01 02:53:27;;;;;;;24.23;20.13;;;3.20;99.90;;;;;;6068533;23;20395;-77
2021/01/01 02:55:53;;;;;;;17.63;13.67;;;3.20;99.90;;;;;;6066742;23;20487;-77
2021/01/01 02:58:20;;;;;;;19.77;13.33;;;3.20;99.90;;;;;;6068531;23;20512;-77
2021/01/01 03:00:48;;;;;;;18.00;15.73;;;3.20;99.90;;;;;;6066970;23;20450;-77
2021/01/01 03:03:15;;;;;;;19.27;15.03;;;3.30;99.90;;;;;;6090680;23;20414;-78
2021/01/01 03:05:41;;;;;;;20.73;13.83;;;3.30;99.90;;;;;;6090914;23;20419;-77
2021/01/01 03:08:07;;;;;;;15.80;14.10;;;3.30;99.90;;;;;;6068415;23;20392;-77
2021/01/01 03:10:34;;;;;;;17.07;14.43;;;3.30;99.90;;;;;;6067923;23;20418;-77
2021/01/01 03:13:00;;;;;;;17.23;14.97;;;3.30;99.90;;;;;;6066995;23;20501;-77
2021/01/01 03:15:27;;;;;;;19.30;16.07;;;3.30;99.90;;;;;;6090334;23;20770;-77
2021/01/01 03:17:54;;;;;;;19.10;13.37;;;3.30;99.90;;;;;;6068310;23;20454;-77
2021/01/01 03:20:20;;;;;;;19.27;15.83;;;3.30;99.90;;;;;;6067650;23;20411;-77
2021/01/01 03:22:46;;;;;;;21.07;16.10;;;3.30;99.90;;;;;;6066799;23;20765;-77
2021/01/01 03:25:13;;;;;;;20.53;14.77;;;3.30;99.90;;;;;;6068270;23;20391;-78
2021/01/01 03:27:39;;;;;;;19.73;15.13;;;3.20;99.90;;;;;;6068129;23;21140;-78
2021/01/01 03:30:07;;;;;;;23.37;17.53;;;3.20;99.90;;;;;;6067561;23;20906;-77
2021/01/01 03:32:35;;;;;;;20.43;15.37;;;3.20;99.90;;;;;;6090938;23;20953;-78
2021/01/01 03:35:01;;;;;;;23.50;15.93;;;3.20;99.90;;;;;;6068113;23;20392;-77
2021/01/01 03:37:27;;;;;;;21.77;15.10;;;3.10;99.90;;;;;;6090365;23;20472;-77
2021/01/01 03:39:54;;;;;;;19.20;15.33;;;3.20;99.90;;;;;;6089828;23;20445;-77
2021/01/01 03:42:21;;;;;;;24.10;14.13;;;3.10;99.90;;;;;;6066557;23;20518;-77
2021/01/01 03:44:47;;;;;;;22.33;15.23;;;3.10;99.90;;;;;;6066333;23;20423;-77
2021/01/01 03:47:13;;;;;;;17.37;12.07;;;3.10;99.90;;;;;;6067827;23;20405;-77
2021/01/01 03:49:40;;;;;;;18.63;13.80;;;3.10;99.90;;;;;;6068916;23;20969;-77
2021/01/01 03:52:07;;;;;;;18.07;14.30;;;3.20;99.90;;;;;;6066761;23;20477;-78
2021/01/01 03:54:33;;;;;;;19.03;13.73;;;3.10;99.90;;;;;;6090511;23;20437;-77
2021/01/01 03:56:59;;;;;;;19.47;15.47;;;3.20;99.90;;;;;;6067798;23;20428;-77
2021/01/01 03:59:25;;;;;;;21.27;16.73;;;3.10;99.90;;;;;;6067575;23;20502;-77
2021/01/01 04:01:52;;;;;;;21.40;17.93;;;3.10;99.90;;;;;;6067873;23;20439;-77
2021/01/01 04:04:18;;;;;;;22.23;16.00;;;3.10;99.90;;;;;;6090614;23;20971;-78
2021/01/01 04:06:45;;;;;;;19.17;17.13;;;3.20;99.90;;;;;;6066192;23;20790;-77
2021/01/01 04:09:11;;;;;;;22.23;14.80;;;3.10;99.90;;;;;;6067391;23;20415;-77
2021/01/01 04:11:38;;;;;;;22.43;19.80;;;3.20;99.90;;;;;;6067531;23;20402;-77
2021/01/01 04:14:04;;;;;;;23.67;20.40;;;3.20;99.90;;;;;;6066479;23;20426;-77
2021/01/01 04:16:31;;;;;;;24.10;21.43;;;3.10;99.90;;;;;;6067322;23;20492;-77
2021/01/01 04:18:58;;;;;;;23.00;20.67;;;3.10;99.90;;;;;;6067174;23;20413;-77
2021/01/01 04:21:25;;;;;;;21.73;19.53;;;3.10;99.90;;;;;;6067496;23;20395;-77
2021/01/01 04:23:52;;;;;;;17.23;12.73;;;3.10;99.90;;;;;;6066324;23;20415;-77
2021/01/01 04:26:18;;;;;;;19.50;12.83;;;3.10;99.90;;;;;;6067709;23;20395;-77
2021/01/01 04:28:44;;;;;;;16.77;12.13;;;3.10;99.90;;;;;;6065706;23;20420;-77
2021/01/01 04:31:11;;;;;;;16.37;12.23;;;3.10;99.90;;;;;;6067727;23;20424;-77
2021/01/01 04:33:37;;;;;;;16.77;12.93;;;3.10;99.90;;;;;;6068311;23;20449;-78
2021/01/01 04:36:04;;;;;;;15.73;11.10;;;3.10;99.90;;;;;;6068128;23;20438;-77
2021/01/01 04:38:31;;;;;;;15.87;12.27;;;3.10;99.90;;;;;;6067929;23;20451;-79
2021/01/01 04:40:58;;;;;;;22.23;15.27;;;3.10;99.90;;;;;;6066653;23;20510;-78
2021/01/01 04:43:25;;;;;;;21.33;15.83;;;3.10;99.90;;;;;;6065396;23;20391;-79
2021/01/01 04:45:52;;;;;;;20.47;16.37;;;3.10;99.90;;;;;;6066356;23;20424;-79
2021/01/01 04:48:18;;;;;;;17.60;14.27;;;3.10;99.90;;;;;;6067381;23;20391;-78
2021/01/01 04:50:45;;;;;;;22.80;17.90;;;3.10;99.90;;;;;;6068127;23;20909;-76
2021/01/01 04:53:16;;;;;;;19.97;15.77;;;3.10;99.90;;;;;;6067450;23;20395;-76
2021/01/01 04:55:43;;;;;;;19.03;15.00;;;3.10;99.90;;;;;;6066333;23;20723;-77
2021/01/01 04:58:10;;;;;;;21.00;15.77;;;3.10;99.90;;;;;;6067250;23;20431;-76
2021/01/01 05:00:38;;;;;;;22.87;17.50;;;3.10;99.90;;;;;;6068326;23;20407;-76
2021/01/01 05:03:04;;;;;;;19.77;16.43;;;3.10;99.90;;;;;;6068418;23;20439;-77
2021/01/01 05:05:31;;;;;;;21.40;15.87;;;3.10;99.90;;;;;;6090811;23;20422;-76
2021/01/01 05:07:58;;;;;;;21.13;16.80;;;3.20;99.90;;;;;;6068105;23;20394;-76
2021/01/01 05:10:24;;;;;;;20.40;15.97;;;3.20;99.90;;;;;;6090415;23;20803;-77
2021/01/01 05:12:50;;;;;;;19.70;17.50;;;3.20;99.90;;;;;;6068329;23;20423;-76
2021/01/01 05:15:34;;;;;;;22.53;19.83;;;3.20;99.90;;;;;;6068116;23;20395;-77
2021/01/01 05:18:00;;;;;;;23.90;19.53;;;3.10;99.90;;;;;;6066490;23;20443;-77
2021/01/01 05:20:28;;;;;;;20.93;18.20;;;3.10;99.90;;;;;;6067686;23;20470;-76
2021/01/01 05:22:58;;;;;;;21.63;19.30;;;3.10;99.90;;;;;;6067987;23;20800;-77
2021/01/01 05:25:26;;;;;;;19.73;15.30;;;3.20;99.90;;;;;;6068129;23;20482;-77
2021/01/01 05:28:00;;;;;;;21.10;15.30;;;3.20;99.90;;;;;;6065568;23;20404;-76
2021/01/01 05:30:31;;;;;;;17.70;13.10;;;3.20;99.90;;;;;;6090826;23;21021;-76
2021/01/01 05:32:58;;;;;;;19.17;13.67;;;3.20;99.90;;;;;;6068286;23;20454;-77
2021/01/01 05:35:28;;;;;;;17.83;14.23;;;3.20;99.90;;;;;;6069099;23;20422;-77
2021/01/01 05:37:55;;;;;;;20.80;18.17;;;3.30;99.90;;;;;;6068477;23;20913;-77
2021/01/01 05:40:30;;;;;;;20.07;14.80;;;3.30;99.90;;;;;;6068509;23;20470;-78
2021/01/01 05:42:56;;;;;;;24.50;17.37;;;3.30;99.90;;;;;;6069448;23;20476;-77
2021/01/01 05:45:27;;;;;;;21.97;15.37;;;3.20;99.90;;;;;;6067269;23;20425;-78
2021/01/01 05:48:04;;;;;;;20.77;14.90;;;3.20;99.90;;;;;;6091800;23;20518;-77
2021/01/01 05:50:32;;;;;;;23.87;16.83;;;3.10;99.90;;;;;;6067192;23;20434;-77
2021/01/01 05:53:15;;;;;;;23.23;17.37;;;3.10;99.90;;;;;;6069106;23;20403;-77
2021/01/01 05:55:42;;;;;;;26.30;21.70;;;3.00;99.90;;;;;;6069202;23;20457;-77
2021/01/01 05:58:23;;;;;;;23.00;17.13;;;3.00;99.90;;;;;;6066535;23;20447;-78
2021/01/01 06:00:54;;;;;;;27.57;19.10;;;3.00;99.90;;;;;;6067113;23;20439;-78
2021/01/01 06:03:24;;;;;;;33.67;25.13;;;3.00;99.90;;;;;;6091431;23;20419;-77
2021/01/01 06:05:54;;;;;;;33.73;22.83;;;3.00;99.90;;;;;;6068360;23;20437;-77
2021/01/01 06:08:25;;;;;;;30.80;26.50;;;3.00;99.90;;;;;;6067373;23;20415;-77
2021/01/01 06:10:52;;;;;;;31.87;20.40;;;3.00;99.90;;;;;;6067109;23;20479;-77
2021/01/01 06:13:20;;;;;;;28.57;19.30;;;2.90;99.90;;;;;;6066882;23;20432;-78
2021/01/01 06:15:56;;;;;;;27.70;21.93;;;2.90;99.90;;;;;;6090893;23;20418;-77
2021/01/01 06:18:27;;;;;;;29.43;21.33;;;2.90;99.90;;;;;;6066902;23;20472;-77
2021/01/01 06:21:01;;;;;;;31.83;22.40;;;2.90;99.90;;;;;;6068346;23;20419;-77
2021/01/01 06:23:35;;;;;;;33.03;21.87;;;2.90;99.90;;;;;;6067161;23;20418;-78
2021/01/01 06:26:04;;;;;;;28.57;21.37;;;2.90;99.90;;;;;;6068669;23;20709;-77
2021/01/01 06:28:31;;;;;;;28.63;24.63;;;2.90;99.90;;;;;;6068224;23;20395;-77
2021/01/01 06:30:59;;;;;;;29.77;23.77;;;2.90;99.90;;;;;;6068152;23;20384;-77
2021/01/01 06:33:27;;;;;;;29.03;19.10;;;3.00;99.90;;;;;;6067869;23;20893;-77
2021/01/01 06:35:54;;;;;;;31.80;20.57;;;3.10;99.90;;;;;;6069270;23;20391;-77
2021/01/01 06:38:42;;;;;;;32.30;20.83;;;3.10;99.90;;;;;;6090529;23;20441;-76
2021/01/01 06:41:13;;;;;;;32.33;24.93;;;3.00;99.90;;;;;;6057681;23;20427;-77
2021/01/01 06:43:54;;;;;;;32.23;23.73;;;3.10;99.90;;;;;;6067328;23;20478;-77
2021/01/01 06:46:36;;;;;;;32.13;21.70;;;3.10;99.90;;;;;;6066434;23;20430;-77
2021/01/01 06:49:05;;;;;;;28.07;19.67;;;3.10;99.90;;;;;;6063103;23;20837;-76
2021/01/01 06:51:31;;;;;;;31.13;19.90;;;3.10;99.90;;;;;;6069365;23;20392;-77
2021/01/01 06:54:10;;;;;;;33.63;21.47;;;3.10;99.90;;;;;;6067534;23;20415;-76
2021/01/01 06:56:40;;;;;;;29.77;21.40;;;3.10;99.90;;;;;;6091717;23;20538;-77
2021/01/01 06:59:11;;;;;;;31.60;21.13;;;3.10;99.90;;;;;;6067324;23;20434;-77
2021/01/01 07:01:42;;;;;;;27.10;20.70;;;3.10;99.90;;;;;;6069342;23;20395;-77
2021/01/01 07:04:09;;;;;;;31.60;22.13;;;3.10;99.90;;;;;;6068408;23;20397;-77
2021/01/01 07:06:38;;;;;;;31.93;22.60;;;3.20;99.90;;;;;;6068639;23;20395;-77
2021/01/01 07:09:14;;;;;;;28.33;21.80;;;3.20;99.90;;;;;;6066603;23;20445;-78
2021/01/01 07:11:44;;;;;;;30.53;22.97;;;3.20;99.90;;;;;;6068751;23;20390;-77
2021/01/01 07:14:21;;;;;;;30.50;20.03;;;3.20;99.90;;;;;;6068783;23;20466;-77
2021/01/01 07:16:48;;;;;;;30.07;26.87;;;3.20;99.90;;;;;;6090435;23;20974;-77
2021/01/01 07:19:17;;;;;;;31.90;27.10;;;3.20;99.90;;;;;;6067658;23;20759;-77
2021/01/01 07:21:43;;;;;;;29.57;26.37;;;3.20;99.90;;;;;;6068734;23;20399;-77
2021/01/01 07:24:10;;;;;;;32.60;27.67;;;3.30;99.90;;;;;;6068413;23;20420;-77
2021/01/01 07:26:37;;;;;;;32.60;27.53;;;3.30;99.90;;;;;;6068424;23;20401;-77
2021/01/01 07:29:04;;;;;;;28.47;25.40;;;3.30;99.90;;;;;;6068067;23;20411;-77
2021/01/01 07:31:31;;;;;;;25.93;18.83;;;3.20;99.90;;;;;;6066631;23;20907;-77
2021/01/01 07:34:06;;;;;;;27.87;21.00;;;3.30;99.90;;;;;;6067746;23;20395;-77
2021/01/01 07:36:34;;;;;;;27.67;21.67;;;3.30;99.90;;;;;;6065785;23;20440;-77
2021/01/01 07:39:04;;;;;;;30.57;24.20;;;3.20;99.90;;;;;;6065091;23;20431;-76
2021/01/01 07:41:30;;;;;;;28.50;22.10;;;3.30;99.90;;;;;;6061343;23;20422;-76
2021/01/01 07:43:57;;;;;;;28.33;22.40;;;3.30;99.90;;;;;;6065018;23;20387;-77
2021/01/01 07:46:23;;;;;;;25.60;20.03;;;3.30;99.90;;;;;;6067615;23;20398;-77
2021/01/01 07:48:53;;;;;;;23.60;18.50;;;3.20;99.90;;;;;;6068040;23;20389;-76
2021/01/01 07:51:19;;;;;;;28.63;20.00;;;3.20;99.90;;;;;;6068269;23;20414;-77
2021/01/01 07:53:47;;;;;;;27.70;20.23;;;3.20;99.90;;;;;;6063449;23;20422;-77
2021/01/01 07:56:13;;;;;;;27.07;20.87;;;3.20;99.90;;;;;;6061501;23;20453;-76
2021/01/01 07:58:41;;;;;;;24.60;19.57;;;3.30;99.90;;;;;;6066078;23;20443;-77
2021/01/01 08:01:09;;;;;;;25.23;19.13;;;3.20;99.90;;;;;;6065155;23;20882;-77
2021/01/01 08:03:37;;;;;;;24.97;18.93;;;3.30;99.90;;;;;;6065481;23;20507;-77
2021/01/01 08:06:03;;;;;;;24.53;18.93;;;3.30;99.90;;;;;;6089176;23;20516;-76
2021/01/01 08:08:30;;;;;;;29.07;20.17;;;3.30;99.90;;;;;;6066353;23;20402;-77
2021/01/01 08:10:58;;;;;;;23.03;18.83;;;3.30;99.90;;;;;;6065197;23;20441;-77
2021/01/01 08:13:26;;;;;;;23.73;18.10;;;3.30;99.90;;;;;;6067081;23;20397;-76
2021/01/01 08:15:54;;;;;;;22.33;19.07;;;3.30;99.90;;;;;;6067025;23;20405;-77
2021/01/01 08:18:21;;;;;;;24.10;19.40;;;3.30;99.90;;;;;;6067229;23;20433;-76
2021/01/01 08:20:56;;;;;;;24.83;19.07;;;3.30;99.90;;;;;;6066593;23;20439;-77
2021/01/01 08:23:23;;;;;;;23.23;18.00;;;3.40;99.90;;;;;;6067503;23;20380;-77
2021/01/01 08:25:51;;;;;;;23.53;17.60;;;3.40;99.90;;;;;;6065024;23;20415;-78
2021/01/01 08:28:21;;;;;;;21.03;17.23;;;3.40;99.90;;;;;;6066415;23;20411;-78
2021/01/01 08:30:54;;;;;;;20.90;17.23;;;3.40;99.90;;;;;;6066804;23;20407;-77
2021/01/01 08:33:20;;;;;;;19.97;16.23;;;3.40;99.90;;;;;;6067117;23;20415;-78
2021/01/01 08:35:46;;;;;;;18.57;15.70;;;3.40;99.90;;;;;;6068406;23;20413;-77
2021/01/01 08:38:19;;;;;;;20.47;16.93;;;3.40;99.90;;;;;;6092111;23;20443;-76
2021/01/01 08:40:54;;;;;;;24.53;17.03;;;3.40;99.90;;;;;;6068028;23;20463;-76
2021/01/01 08:43:21;;;;;;;19.73;16.50;;;3.30;99.90;;;;;;6090870;23;20462;-77
2021/01/01 08:45:48;;;;;;;22.57;16.53;;;3.40;99.90;;;;;;6067668;23;20473;-79
2021/01/01 08:48:15;;;;;;;20.80;17.13;;;3.40;99.90;;;;;;6091332;23;20418;-79
2021/01/01 08:50:47;;;;;;;15.40;12.27;;;3.40;99.90;;;;;;6067618;23;20417;-77
2021/01/01 08:53:14;;;;;;;17.40;13.00;;;3.40;99.90;;;;;;6067721;23;20459;-77
2021/01/01 08:55:41;;;;;;;17.77;12.37;;;3.30;99.90;;;;;;6066838;23;20426;-77
2021/01/01 08:58:08;;;;;;;21.43;15.77;;;3.30;99.90;;;;;;6090927;23;20468;-76
2021/01/01 09:00:36;;;;;;;19.27;16.30;;;3.40;99.90;;;;;;6067188;23;20438;-77
2021/01/01 09:03:04;;;;;;;20.53;18.17;;;3.30;99.90;;;;;;6068788;23;20391;-76
2021/01/01 09:05:31;;;;;;;18.70;14.17;;;3.30;99.90;;;;;;6067764;23;20442;-77
2021/01/01 09:08:08;;;;;;;21.50;15.60;;;3.30;99.90;;;;;;6070001;23;20864;-77
2021/01/01 09:10:35;;;;;;;23.60;17.53;;;3.30;99.90;;;;;;6069243;23;20505;-76
2021/01/01 09:13:16;;;;;;;24.73;18.40;;;3.30;99.90;;;;;;6067933;23;20675;-77
2021/01/01 09:15:44;;;;;;;22.20;16.67;;;3.30;99.90;;;;;;6091688;23;20448;-77
2021/01/01 09:18:11;;;;;;;23.33;15.07;;;3.40;99.90;;;;;;6068940;23;20709;-76
2021/01/01 09:20:40;;;;;;;21.17;17.70;;;3.40;99.90;;;;;;6067516;23;20434;-77
2021/01/01 09:23:07;;;;;;;22.37;16.00;;;3.40;99.90;;;;;;6069443;23;20483;-77
2021/01/01 09:25:34;;;;;;;21.73;16.33;;;3.50;99.90;;;;;;6069745;23;20480;-76
2021/01/01 09:28:02;;;;;;;21.67;14.03;;;3.50;99.90;;;;;;6091883;23;20426;-76
2021/01/01 09:30:30;;;;;;;21.90;14.93;;;3.50;99.90;;;;;;6068914;23;20415;-77
2021/01/01 09:32:58;;;;;;;26.23;16.47;;;3.50;99.90;;;;;;6069410;23;20402;-76
2021/01/01 09:35:25;;;;;;;21.50;15.63;;;3.50;99.90;;;;;;6069477;23;20958;-75
2021/01/01 09:37:52;;;;;;;25.07;15.50;;;3.60;99.90;;;;;;6069150;23;20433;-78
2021/01/01 09:40:20;;;;;;;24.80;22.13;;;3.60;99.90;;;;;;6068630;23;20420;-76
2021/01/01 09:42:47;;;;;;;28.97;23.80;;;3.60;99.90;;;;;;6069177;23;20742;-76
2021/01/01 09:45:14;;;;;;;28.80;25.60;;;3.60;99.90;;;;;;6067386;23;20452;-76
2021/01/01 09:47:41;;;;;;;21.63;15.80;;;3.60;99.90;;;;;;6069160;23;20387;-77
2021/01/01 09:50:09;;;;;;;22.43;15.47;;;3.70;99.90;;;;;;6069682;23;20414;-77
2021/01/01 09:52:36;;;;;;;21.23;18.77;;;3.60;99.90;;;;;;6068949;23;20406;-76
2021/01/01 09:55:03;;;;;;;20.57;16.10;;;3.80;99.90;;;;;;6069252;23;20398;-76
2021/01/01 09:57:29;;;;;;;24.03;17.20;;;3.80;99.90;;;;;;6091439;23;20447;-77
2021/01/01 09:59:56;;;;;;;21.43;15.63;;;3.80;99.90;;;;;;6067255;23;20442;-77
2021/01/01 10:02:23;;;;;;;22.17;15.63;;;3.80;99.90;;;;;;6067438;23;20429;-76
2021/01/01 10:04:49;;;;;;;20.80;15.43;;;3.90;99.90;;;;;;6067636;23;20415;-77
2021/01/01 10:07:17;;;;;;;22.10;15.27;;;3.80;99.90;;;;;;6068724;23;20387;-77
2021/01/01 10:09:43;;;;;;;21.80;16.20;;;3.80;99.90;;;;;;6066944;23;20491;-76
2021/01/01 10:12:12;;;;;;;21.20;17.47;;;3.90;99.90;;;;;;6068462;23;20423;-80
2021/01/01 10:14:39;;;;;;;22.20;19.57;;;4.00;99.90;;;;;;6068215;23;20897;-76
2021/01/01 10:17:05;;;;;;;19.13;15.90;;;4.00;99.90;;;;;;6067195;23;20848;-80
2021/01/01 10:19:32;;;;;;;18.37;13.50;;;4.20;99.90;;;;;;6063241;23;20410;-77
2021/01/01 10:21:58;;;;;;;18.33;14.63;;;4.30;99.90;;;;;;6066923;23;20498;-77
2021/01/01 10:24:25;;;;;;;19.90;14.80;;;4.30;99.90;;;;;;6064016;23;20418;-77
2021/01/01 10:26:53;;;;;;;21.20;15.93;;;4.30;99.90;;;;;;6065811;23;20965;-76
2021/01/01 10:29:20;;;;;;;17.67;14.00;;;4.30;99.90;;;;;;6067022;23;20905;-77
2021/01/01 10:31:46;;;;;;;20.20;15.40;;;4.20;99.90;;;;;;6064625;23;20426;-76
2021/01/01 10:34:12;;;;;;;17.33;13.33;;;4.20;99.90;;;;;;6089203;23;20466;-76
2021/01/01 10:36:39;;;;;;;16.63;12.57;;;4.40;99.90;;;;;;6066526;23;20395;-76
2021/01/01 10:39:07;;;;;;;13.47;10.83;;;4.40;99.90;;;;;;6064976;23;20438;-75
2021/01/01 10:41:34;;;;;;;15.13;12.57;;;4.40;99.90;;;;;;6066712;23;20878;-77
2021/01/01 10:44:00;;;;;;;13.00;11.37;;;4.40;99.90;;;;;;6089249;23;20439;-76
2021/01/01 10:46:26;;;;;;;16.17;10.83;;;4.30;99.90;;;;;;6066966;23;20720;-75
2021/01/01 10:48:53;;;;;;;13.63;9.13;;;4.30;99.90;;;;;;6063737;23;20443;-74
2021/01/01 10:51:23;;;;;;;11.27;8.90;;;4.30;99.90;;;;;;6066782;23;20402;-74
2021/01/01 10:53:50;;;;;;;12.67;10.13;;;4.40;99.90;;;;;;6089717;23;20415;-75
2021/01/01 10:56:21;;;;;;;10.17;8.03;;;4.50;99.90;;;;;;6066743;23;20470;-75
2021/01/01 10:58:48;;;;;;;13.07;9.87;;;4.60;99.90;;;;;;6066411;23;20517;-75
2021/01/01 11:01:17;;;;;;;10.33;8.20;;;4.60;99.90;;;;;;6066458;23;20395;-75
2021/01/01 11:03:44;;;;;;;11.37;8.13;;;4.70;99.90;;;;;;6066716;23;20718;-75
2021/01/01 11:06:10;;;;;;;12.97;8.43;;;4.70;99.90;;;;;;6065202;23;20418;-76
2021/01/01 11:08:39;;;;;;;15.07;13.53;;;4.70;99.90;;;;;;6065107;23;20407;-75
2021/01/01 11:11:05;;;;;;;11.10;8.30;;;4.60;99.90;;;;;;6066801;23;20399;-76
2021/01/01 11:13:31;;;;;;;10.57;7.43;;;4.50;99.90;;;;;;6069175;23;20395;-75
2021/01/01 12:22:20;;;;;;;10.70;9.67;;;5.00;99.90;;;;;;6066751;23;20190;-76
2021/01/01 12:24:47;;;;;;;15.90;14.63;;;5.00;99.90;;;;;;6065459;23;20179;-76
2021/01/01 12:27:15;;;;;;;11.20;10.20;;;5.00;99.90;;;;;;6064846;23;20185;-77
2021/01/01 12:29:42;;;;;;;12.03;10.93;;;5.00;99.90;;;;;;6064224;23;20194;-77
2021/01/01 12:32:09;;;;;;;11.10;10.00;;;5.00;99.90;;;;;;6066500;23;20171;-77
2021/01/01 12:34:35;;;;;;;11.17;9.03;;;5.00;99.90;;;;;;6065163;23;20178;-77
2021/01/01 12:37:01;;;;;;;9.33;8.43;;;4.90;99.90;;;;;;6063409;23;20198;-76
2021/01/01 12:39:28;;;;;;;9.03;8.07;;;4.90;99.90;;;;;;6063739;23;20199;-76
2021/01/01 12:41:55;;;;;;;9.50;7.20;;;4.90;99.90;;;;;;6065281;23;20587;-76
2021/01/01 12:44:21;;;;;;;7.90;6.30;;;5.00;99.90;;;;;;6066159;23;20387;-76
2021/01/01 12:46:47;;;;;;;6.93;5.83;;;5.10;99.90;;;;;;6064573;23;20179;-77
2021/01/01 12:49:13;;;;;;;8.70;6.13;;;5.20;99.90;;;;;;6065959;23;20190;-77
2021/01/01 12:51:40;;;;;;;7.63;6.53;;;5.10;99.90;;;;;;6066171;23;20626;-77
2021/01/01 12:54:06;;;;;;;7.17;5.70;;;5.20;99.90;;;;;;6066208;23;20171;-77
2021/01/01 12:56:33;;;;;;;7.37;5.67;;;5.20;99.90;;;;;;6066061;23;20230;-77
2021/01/01 12:58:59;;;;;;;8.80;7.90;;;5.20;99.90;;;;;;6066073;23;20251;-75
2021/01/01 13:01:26;;;;;;;8.27;6.80;;;5.20;99.90;;;;;;6065439;23;20515;-76
2021/01/01 13:04:00;;;;;;;8.33;6.43;;;5.10;99.90;;;;;;6089876;23;20572;-77
2021/01/01 13:06:31;;;;;;;10.80;9.80;;;5.10;99.90;;;;;;6065966;23;20175;-76
2021/01/01 13:09:01;;;;;;;8.23;6.63;;;5.00;99.90;;;;;;6064958;23;20255;-77
2021/01/01 13:11:36;;;;;;;8.07;6.83;;;5.00;99.90;;;;;;6064687;23;20175;-75
2021/01/01 13:14:03;;;;;;;12.77;11.77;;;5.00;99.90;;;;;;6064909;23;20310;-76
2021/01/01 13:16:29;;;;;;;13.37;12.20;;;5.00;99.90;;;;;;6089863;23;20429;-76
2021/01/01 13:18:56;;;;;;;14.97;13.77;;;5.00;99.90;;;;;;6066268;23;20456;-76
2021/01/01 13:21:26;;;;;;;13.03;11.93;;;5.00;99.90;;;;;;6068623;23;20171;-77
2021/01/01 13:23:53;;;;;;;14.33;13.23;;;5.00;99.90;;;;;;6067206;23;20419;-77
2021/01/01 13:26:21;;;;;;;14.17;12.90;;;4.90;99.90;;;;;;6068431;23;20167;-77
2021/01/01 13:28:47;;;;;;;14.20;13.10;;;4.80;99.90;;;;;;6064992;23;20577;-77
2021/01/01 13:31:15;;;;;;;13.27;12.27;;;4.80;99.90;;;;;;6067928;23;20171;-77
2021/01/01 13:33:41;;;;;;;14.70;13.60;;;4.90;99.90;;;;;;6089761;23;20229;-77
2021/01/01 13:36:13;;;;;;;15.33;14.13;;;4.80;99.90;;;;;;6067768;23;20174;-77
2021/01/01 13:38:39;;;;;;;14.47;13.37;;;4.80;99.90;;;;;;6067324;23;20175;-76
2021/01/01 13:41:09;;;;;;;14.57;13.27;;;4.90;99.90;;;;;;6065887;23;20902;-77
2021/01/01 13:43:39;;;;;;;14.07;13.00;;;4.90;99.90;;;;;;6066590;23;20407;-77
2021/01/01 13:46:05;;;;;;;14.60;13.37;;;4.90;99.90;;;;;;6064126;23;20175;-77
2021/01/01 13:48:32;;;;;;;14.77;13.57;;;4.90;99.90;;;;;;6061798;23;20175;-76